sensor_id;sensor_type;location;lat;lon;timestamp;P1;durP1;ratioP1;P2;durP2;ratioP2
4290;SDS011;2159;50.906;7.152;2023-10-09T00:01:04;16.30;;;8.20;;
4290;SDS011;2159;50.906;7.152;2023-10-09T00:03:39;13.87;;;7.97;;
4290;SDS011;2159;50.906;7.152;2023-10-09T00:06:09;15.60;;;7.97;;
4290;SDS011;2159;50.906;7.152;2023-10-09T00:08:39;13.93;;;8.30;;
4290;SDS011;2159;50.906;7.152;2023-10-09T00:11:11;13.70;;;7.90;;
4290;SDS011;2159;50.906;7.152;2023-10-09T00:13:43;14.33;;;7.73;;
4290;SDS011;2159;50.906;7.152;2023-10-09T00:16:18;19.13;;;8.40;;
4290;SDS011;2159;50.906;7.152;2023-10-09T00:18:59;16.20;;;8.30;;
4290;SDS011;2159;50.906;7.152;2023-10-09T00:21:40;12.43;;;8.00;;
4290;SDS011;2159;50.906;7.152;2023-10-09T00:24:07;12.87;;;8.30;;
4290;SDS011;2159;50.906;7.152;2023-10-09T00:26:40;12.27;;;7.60;;
4290;SDS011;2159;50.906;7.152;2023-10-09T00:29:12;15.23;;;7.93;;
4290;SDS011;2159;50.906;7.152;2023-10-09T00:31:42;12.07;;;7.07;;
4290;SDS011;2159;50.906;7.152;2023-10-09T00:34:16;13.00;;;7.50;;
4290;SDS011;2159;50.906;7.152;2023-10-09T00:36:45;11.60;;;7.10;;
4290;SDS011;2159;50.906;7.152;2023-10-09T00:39:18;13.90;;;7.30;;
4290;SDS011;2159;50.906;7.152;2023-10-09T00:42:00;16.70;;;7.90;;
4290;SDS011;2159;50.906;7.152;2023-10-09T00:44:28;10.30;;;7.00;;
4290;SDS011;2159;50.906;7.152;2023-10-09T00:47:08;12.00;;;6.80;;
4290;SDS011;2159;50.906;7.152;2023-10-09T00:49:49;12.77;;;7.33;;
4290;SDS011;2159;50.906;7.152;2023-10-09T00:52:17;14.53;;;6.87;;
4290;SDS011;2159;50.906;7.152;2023-10-09T00:54:53;11.57;;;7.20;;
4290;SDS011;2159;50.906;7.152;2023-10-09T00:57:28;13.33;;;8.07;;
4290;SDS011;2159;50.906;7.152;2023-10-09T00:59:57;12.73;;;7.20;;
4290;SDS011;2159;50.906;7.152;2023-10-09T01:02:28;8.53;;;6.10;;
4290;SDS011;2159;50.906;7.152;2023-10-09T01:05:03;13.50;;;6.83;;
4290;SDS011;2159;50.906;7.152;2023-10-09T01:07:47;13.63;;;7.17;;
4290;SDS011;2159;50.906;7.152;2023-10-09T01:10:24;15.30;;;6.57;;
4290;SDS011;2159;50.906;7.152;2023-10-09T01:13:00;11.37;;;6.90;;
4290;SDS011;2159;50.906;7.152;2023-10-09T01:15:29;10.10;;;6.10;;
4290;SDS011;2159;50.906;7.152;2023-10-09T01:18:11;17.53;;;6.60;;
4290;SDS011;2159;50.906;7.152;2023-10-09T01:20:39;9.60;;;6.17;;
4290;SDS011;2159;50.906;7.152;2023-10-09T01:23:12;9.73;;;5.80;;
4290;SDS011;2159;50.906;7.152;2023-10-09T01:25:41;10.63;;;6.13;;
4290;SDS011;2159;50.906;7.152;2023-10-09T01:28:11;8.30;;;5.70;;
4290;SDS011;2159;50.906;7.152;2023-10-09T01:30:42;11.83;;;7.10;;
4290;SDS011;2159;50.906;7.152;2023-10-09T01:33:12;11.03;;;5.80;;
4290;SDS011;2159;50.906;7.152;2023-10-09T01:35:48;12.40;;;6.37;;
4290;SDS011;2159;50.906;7.152;2023-10-09T01:38:21;13.17;;;6.80;;
4290;SDS011;2159;50.906;7.152;2023-10-09T01:41:07;9.97;;;6.20;;
4290;SDS011;2159;50.906;7.152;2023-10-09T01:43:41;11.33;;;6.17;;
4290;SDS011;2159;50.906;7.152;2023-10-09T01:46:11;10.50;;;6.40;;
4290;SDS011;2159;50.906;7.152;2023-10-09T01:48:42;13.77;;;6.00;;
4290;SDS011;2159;50.906;7.152;2023-10-09T01:51:13;12.87;;;6.70;;
4290;SDS011;2159;50.906;7.152;2023-10-09T01:53:44;8.63;;;6.10;;
4290;SDS011;2159;50.906;7.152;2023-10-09T01:56:13;11.70;;;6.10;;
4290;SDS011;2159;50.906;7.152;2023-10-09T01:58:42;9.50;;;6.17;;
4290;SDS011;2159;50.906;7.152;2023-10-09T02:01:13;8.30;;;5.97;;
4290;SDS011;2159;50.906;7.152;2023-10-09T02:03:42;9.53;;;5.93;;
4290;SDS011;2159;50.906;7.152;2023-10-09T02:06:09;12.40;;;6.53;;
4290;SDS011;2159;50.906;7.152;2023-10-09T02:08:54;13.27;;;6.20;;
4290;SDS011;2159;50.906;7.152;2023-10-09T02:11:22;11.47;;;5.90;;
4290;SDS011;2159;50.906;7.152;2023-10-09T02:14:03;9.10;;;5.93;;
4290;SDS011;2159;50.906;7.152;2023-10-09T02:16:42;10.90;;;5.87;;
4290;SDS011;2159;50.906;7.152;2023-10-09T02:19:09;11.17;;;6.20;;
4290;SDS011;2159;50.906;7.152;2023-10-09T02:21:58;8.80;;;5.53;;
4290;SDS011;2159;50.906;7.152;2023-10-09T02:24:28;10.00;;;5.80;;
4290;SDS011;2159;50.906;7.152;2023-10-09T02:27:10;11.30;;;6.00;;
4290;SDS011;2159;50.906;7.152;2023-10-09T02:29:41;8.40;;;5.50;;
4290;SDS011;2159;50.906;7.152;2023-10-09T02:32:09;11.13;;;5.50;;
4290;SDS011;2159;50.906;7.152;2023-10-09T02:34:51;9.10;;;5.73;;
4290;SDS011;2159;50.906;7.152;2023-10-09T02:37:20;13.90;;;6.40;;
4290;SDS011;2159;50.906;7.152;2023-10-09T02:39:52;10.63;;;5.77;;
4290;SDS011;2159;50.906;7.152;2023-10-09T02:42:20;10.00;;;5.60;;
4290;SDS011;2159;50.906;7.152;2023-10-09T02:44:50;11.10;;;5.93;;
4290;SDS011;2159;50.906;7.152;2023-10-09T02:47:17;7.80;;;5.20;;
4290;SDS011;2159;50.906;7.152;2023-10-09T02:49:50;11.43;;;5.33;;
4290;SDS011;2159;50.906;7.152;2023-10-09T02:52:18;9.20;;;5.77;;
4290;SDS011;2159;50.906;7.152;2023-10-09T02:54:52;11.20;;;5.57;;
4290;SDS011;2159;50.906;7.152;2023-10-09T02:57:26;7.77;;;5.30;;
4290;SDS011;2159;50.906;7.152;2023-10-09T03:00:03;12.20;;;6.17;;
4290;SDS011;2159;50.906;7.152;2023-10-09T03:02:34;8.93;;;5.40;;
4290;SDS011;2159;50.906;7.152;2023-10-09T03:05:06;10.07;;;5.70;;
4290;SDS011;2159;50.906;7.152;2023-10-09T03:07:38;8.47;;;5.27;;
4290;SDS011;2159;50.906;7.152;2023-10-09T03:10:07;8.20;;;4.80;;
4290;SDS011;2159;50.906;7.152;2023-10-09T03:12:36;7.13;;;5.60;;
4290;SDS011;2159;50.906;7.152;2023-10-09T03:15:06;9.13;;;5.50;;
4290;SDS011;2159;50.906;7.152;2023-10-09T03:17:35;8.70;;;5.60;;
4290;SDS011;2159;50.906;7.152;2023-10-09T03:20:03;11.00;;;6.00;;
4290;SDS011;2159;50.906;7.152;2023-10-09T03:22:38;8.97;;;5.10;;
4290;SDS011;2159;50.906;7.152;2023-10-09T03:25:08;9.87;;;6.07;;
4290;SDS011;2159;50.906;7.152;2023-10-09T03:27:38;8.47;;;5.97;;
4290;SDS011;2159;50.906;7.152;2023-10-09T03:30:09;8.17;;;5.50;;
4290;SDS011;2159;50.906;7.152;2023-10-09T03:32:43;11.10;;;5.47;;
4290;SDS011;2159;50.906;7.152;2023-10-09T03:35:11;6.67;;;5.03;;
4290;SDS011;2159;50.906;7.152;2023-10-09T03:37:54;8.90;;;5.67;;
4290;SDS011;2159;50.906;7.152;2023-10-09T03:40:27;9.97;;;5.30;;
4290;SDS011;2159;50.906;7.152;2023-10-09T03:42:55;9.80;;;5.50;;
4290;SDS011;2159;50.906;7.152;2023-10-09T03:45:22;6.73;;;5.30;;
4290;SDS011;2159;50.906;7.152;2023-10-09T03:47:56;8.60;;;5.50;;
4290;SDS011;2159;50.906;7.152;2023-10-09T03:50:29;11.40;;;5.70;;
4290;SDS011;2159;50.906;7.152;2023-10-09T03:53:03;7.90;;;5.17;;
4290;SDS011;2159;50.906;7.152;2023-10-09T03:55:35;8.17;;;5.70;;
4290;SDS011;2159;50.906;7.152;2023-10-09T03:58:04;10.00;;;5.40;;
4290;SDS011;2159;50.906;7.152;2023-10-09T04:00:32;8.57;;;5.50;;
4290;SDS011;2159;50.906;7.152;2023-10-09T04:03:11;8.10;;;5.13;;
4290;SDS011;2159;50.906;7.152;2023-10-09T04:05:40;12.20;;;5.97;;
4290;SDS011;2159;50.906;7.152;2023-10-09T04:08:09;8.43;;;5.33;;
4290;SDS011;2159;50.906;7.152;2023-10-09T04:10:44;10.07;;;6.40;;
4290;SDS011;2159;50.906;7.152;2023-10-09T04:13:20;7.90;;;5.77;;
4290;SDS011;2159;50.906;7.152;2023-10-09T04:15:59;10.60;;;5.90;;
4290;SDS011;2159;50.906;7.152;2023-10-09T04:18:35;8.83;;;5.47;;
4290;SDS011;2159;50.906;7.152;2023-10-09T04:21:05;10.50;;;5.73;;
4290;SDS011;2159;50.906;7.152;2023-10-09T04:23:49;8.57;;;5.23;;
4290;SDS011;2159;50.906;7.152;2023-10-09T04:26:36;7.60;;;5.57;;
4290;SDS011;2159;50.906;7.152;2023-10-09T04:29:06;9.63;;;5.53;;
4290;SDS011;2159;50.906;7.152;2023-10-09T04:31:36;11.50;;;5.07;;
4290;SDS011;2159;50.906;7.152;2023-10-09T04:34:04;8.47;;;5.00;;
4290;SDS011;2159;50.906;7.152;2023-10-09T04:36:55;6.80;;;5.13;;
4290;SDS011;2159;50.906;7.152;2023-10-09T04:39:26;8.43;;;5.90;;
4290;SDS011;2159;50.906;7.152;2023-10-09T04:42:13;10.17;;;5.30;;
4290;SDS011;2159;50.906;7.152;2023-10-09T04:45:03;12.10;;;5.47;;
4290;SDS011;2159;50.906;7.152;2023-10-09T04:48:06;10.67;;;5.77;;
4290;SDS011;2159;50.906;7.152;2023-10-09T04:50:35;9.90;;;5.67;;
4290;SDS011;2159;50.906;7.152;2023-10-09T04:53:29;8.40;;;5.60;;
4290;SDS011;2159;50.906;7.152;2023-10-09T04:56:05;9.40;;;5.30;;
4290;SDS011;2159;50.906;7.152;2023-10-09T04:58:43;6.10;;;4.77;;
4290;SDS011;2159;50.906;7.152;2023-10-09T05:01:12;12.40;;;5.70;;
4290;SDS011;2159;50.906;7.152;2023-10-09T05:03:40;6.73;;;5.10;;
4290;SDS011;2159;50.906;7.152;2023-10-09T05:06:11;7.13;;;5.57;;
4290;SDS011;2159;50.906;7.152;2023-10-09T05:08:59;9.43;;;5.60;;
4290;SDS011;2159;50.906;7.152;2023-10-09T05:11:34;9.77;;;4.93;;
4290;SDS011;2159;50.906;7.152;2023-10-09T05:14:21;9.33;;;5.27;;
4290;SDS011;2159;50.906;7.152;2023-10-09T05:16:53;8.83;;;5.70;;
4290;SDS011;2159;50.906;7.152;2023-10-09T05:19:21;8.20;;;5.80;;
4290;SDS011;2159;50.906;7.152;2023-10-09T05:22:09;10.83;;;5.60;;
4290;SDS011;2159;50.906;7.152;2023-10-09T05:24:56;8.13;;;5.43;;
4290;SDS011;2159;50.906;7.152;2023-10-09T05:27:24;8.40;;;4.93;;
4290;SDS011;2159;50.906;7.152;2023-10-09T05:30:07;9.73;;;5.40;;
4290;SDS011;2159;50.906;7.152;2023-10-09T05:32:52;7.30;;;5.30;;
4290;SDS011;2159;50.906;7.152;2023-10-09T05:35:21;12.57;;;5.43;;
4290;SDS011;2159;50.906;7.152;2023-10-09T05:37:56;8.33;;;5.40;;
4290;SDS011;2159;50.906;7.152;2023-10-09T05:40:28;8.20;;;5.30;;
4290;SDS011;2159;50.906;7.152;2023-10-09T05:42:58;10.93;;;5.60;;
4290;SDS011;2159;50.906;7.152;2023-10-09T05:45:27;8.33;;;5.27;;
4290;SDS011;2159;50.906;7.152;2023-10-09T05:48:17;8.43;;;5.47;;
4290;SDS011;2159;50.906;7.152;2023-10-09T05:50:59;7.87;;;5.60;;
4290;SDS011;2159;50.906;7.152;2023-10-09T05:54:05;10.27;;;5.40;;
4290;SDS011;2159;50.906;7.152;2023-10-09T05:57:10;13.17;;;5.30;;
4290;SDS011;2159;50.906;7.152;2023-10-09T05:59:55;10.93;;;5.30;;
4290;SDS011;2159;50.906;7.152;2023-10-09T06:02:44;11.93;;;5.57;;
4290;SDS011;2159;50.906;7.152;2023-10-09T06:05:29;12.50;;;5.03;;
4290;SDS011;2159;50.906;7.152;2023-10-09T06:08:17;11.13;;;5.37;;
4290;SDS011;2159;50.906;7.152;2023-10-09T06:10:51;9.63;;;5.90;;
4290;SDS011;2159;50.906;7.152;2023-10-09T06:13:32;8.67;;;5.33;;
4290;SDS011;2159;50.906;7.152;2023-10-09T06:16:07;8.23;;;5.67;;
4290;SDS011;2159;50.906;7.152;2023-10-09T06:18:48;9.30;;;6.13;;
4290;SDS011;2159;50.906;7.152;2023-10-09T06:21:34;10.40;;;5.70;;
4290;SDS011;2159;50.906;7.152;2023-10-09T06:24:22;7.20;;;5.20;;
4290;SDS011;2159;50.906;7.152;2023-10-09T06:26:50;7.50;;;5.17;;
4290;SDS011;2159;50.906;7.152;2023-10-09T06:29:34;7.30;;;5.77;;
4290;SDS011;2159;50.906;7.152;2023-10-09T06:32:17;8.30;;;5.30;;
4290;SDS011;2159;50.906;7.152;2023-10-09T06:35:02;11.33;;;5.20;;
4290;SDS011;2159;50.906;7.152;2023-10-09T06:37:48;7.40;;;5.10;;
4290;SDS011;2159;50.906;7.152;2023-10-09T06:40:48;7.90;;;5.70;;
4290;SDS011;2159;50.906;7.152;2023-10-09T06:43:33;7.50;;;5.30;;
4290;SDS011;2159;50.906;7.152;2023-10-09T06:46:14;9.73;;;5.47;;
4290;SDS011;2159;50.906;7.152;2023-10-09T06:49:10;7.23;;;5.67;;
4290;SDS011;2159;50.906;7.152;2023-10-09T06:51:58;9.80;;;5.90;;
4290;SDS011;2159;50.906;7.152;2023-10-09T06:54:40;9.50;;;5.33;;
4290;SDS011;2159;50.906;7.152;2023-10-09T06:57:16;10.80;;;6.70;;
4290;SDS011;2159;50.906;7.152;2023-10-09T07:00:05;10.90;;;6.47;;
4290;SDS011;2159;50.906;7.152;2023-10-09T07:02:50;11.73;;;5.70;;
4290;SDS011;2159;50.906;7.152;2023-10-09T07:05:20;9.13;;;6.00;;
4290;SDS011;2159;50.906;7.152;2023-10-09T07:07:48;7.77;;;5.70;;
4290;SDS011;2159;50.906;7.152;2023-10-09T07:10:22;13.90;;;5.80;;
4290;SDS011;2159;50.906;7.152;2023-10-09T07:12:59;8.57;;;5.47;;
4290;SDS011;2159;50.906;7.152;2023-10-09T07:15:29;8.50;;;5.80;;
4290;SDS011;2159;50.906;7.152;2023-10-09T07:18:25;8.77;;;6.40;;
4290;SDS011;2159;50.906;7.152;2023-10-09T07:21:07;11.50;;;6.30;;
4290;SDS011;2159;50.906;7.152;2023-10-09T07:23:39;13.33;;;6.43;;
4290;SDS011;2159;50.906;7.152;2023-10-09T07:26:15;11.60;;;5.80;;
4290;SDS011;2159;50.906;7.152;2023-10-09T07:28:45;8.43;;;5.67;;
4290;SDS011;2159;50.906;7.152;2023-10-09T07:31:18;7.93;;;5.47;;
4290;SDS011;2159;50.906;7.152;2023-10-09T07:33:53;10.40;;;5.73;;
4290;SDS011;2159;50.906;7.152;2023-10-09T07:36:33;11.10;;;5.93;;
4290;SDS011;2159;50.906;7.152;2023-10-09T07:39:06;8.53;;;6.20;;
4290;SDS011;2159;50.906;7.152;2023-10-09T07:41:43;11.80;;;5.50;;
4290;SDS011;2159;50.906;7.152;2023-10-09T07:44:28;8.33;;;5.77;;
4290;SDS011;2159;50.906;7.152;2023-10-09T07:47:03;10.00;;;5.87;;
4290;SDS011;2159;50.906;7.152;2023-10-09T07:49:49;15.30;;;7.20;;
4290;SDS011;2159;50.906;7.152;2023-10-09T07:52:20;19.00;;;9.60;;
4290;SDS011;2159;50.906;7.152;2023-10-09T07:54:53;30.30;;;13.27;;
4290;SDS011;2159;50.906;7.152;2023-10-09T07:57:28;30.97;;;13.70;;
4290;SDS011;2159;50.906;7.152;2023-10-09T08:00:05;31.70;;;14.13;;
4290;SDS011;2159;50.906;7.152;2023-10-09T08:03:00;24.33;;;12.17;;
4290;SDS011;2159;50.906;7.152;2023-10-09T08:05:28;19.70;;;9.97;;
4290;SDS011;2159;50.906;7.152;2023-10-09T08:08:00;25.17;;;10.13;;
4290;SDS011;2159;50.906;7.152;2023-10-09T08:11:07;18.63;;;10.00;;
4290;SDS011;2159;50.906;7.152;2023-10-09T08:13:52;14.70;;;8.90;;
4290;SDS011;2159;50.906;7.152;2023-10-09T08:16:28;13.60;;;8.40;;
4290;SDS011;2159;50.906;7.152;2023-10-09T08:19:04;21.57;;;8.50;;
4290;SDS011;2159;50.906;7.152;2023-10-09T08:21:55;19.00;;;9.20;;
4290;SDS011;2159;50.906;7.152;2023-10-09T08:25:04;16.93;;;9.23;;
4290;SDS011;2159;50.906;7.152;2023-10-09T08:27:32;13.77;;;8.40;;
4290;SDS011;2159;50.906;7.152;2023-10-09T08:30:21;13.37;;;8.50;;
4290;SDS011;2159;50.906;7.152;2023-10-09T08:33:15;21.13;;;9.57;;
4290;SDS011;2159;50.906;7.152;2023-10-09T08:36:25;12.50;;;8.23;;
4290;SDS011;2159;50.906;7.152;2023-10-09T08:38:58;16.17;;;8.00;;
4290;SDS011;2159;50.906;7.152;2023-10-09T08:41:27;13.00;;;7.80;;
4290;SDS011;2159;50.906;7.152;2023-10-09T08:43:58;12.10;;;7.57;;
4290;SDS011;2159;50.906;7.152;2023-10-09T08:46:26;17.63;;;7.60;;
4290;SDS011;2159;50.906;7.152;2023-10-09T08:48:55;10.80;;;7.17;;
4290;SDS011;2159;50.906;7.152;2023-10-09T08:51:23;15.13;;;7.33;;
4290;SDS011;2159;50.906;7.152;2023-10-09T08:53:51;13.13;;;7.20;;
4290;SDS011;2159;50.906;7.152;2023-10-09T08:56:19;15.27;;;7.13;;
4290;SDS011;2159;50.906;7.152;2023-10-09T08:58:49;16.83;;;7.07;;
4290;SDS011;2159;50.906;7.152;2023-10-09T09:01:19;11.20;;;6.80;;
4290;SDS011;2159;50.906;7.152;2023-10-09T09:03:48;13.57;;;6.90;;
4290;SDS011;2159;50.906;7.152;2023-10-09T09:06:17;11.60;;;6.50;;
4290;SDS011;2159;50.906;7.152;2023-10-09T09:08:45;17.63;;;6.90;;
4290;SDS011;2159;50.906;7.152;2023-10-09T09:11:13;12.33;;;6.50;;
4290;SDS011;2159;50.906;7.152;2023-10-09T09:13:43;12.20;;;7.17;;
4290;SDS011;2159;50.906;7.152;2023-10-09T09:16:16;11.20;;;7.40;;
4290;SDS011;2159;50.906;7.152;2023-10-09T09:18:51;13.00;;;7.00;;
4290;SDS011;2159;50.906;7.152;2023-10-09T09:21:27;12.27;;;7.00;;
4290;SDS011;2159;50.906;7.152;2023-10-09T09:23:55;7.07;;;6.07;;
4290;SDS011;2159;50.906;7.152;2023-10-09T09:26:34;24.53;;;7.10;;
4290;SDS011;2159;50.906;7.152;2023-10-09T09:29:04;11.73;;;6.10;;
4290;SDS011;2159;50.906;7.152;2023-10-09T09:31:33;10.57;;;6.00;;
4290;SDS011;2159;50.906;7.152;2023-10-09T09:34:08;12.10;;;6.43;;
4290;SDS011;2159;50.906;7.152;2023-10-09T09:36:53;10.03;;;6.03;;
4290;SDS011;2159;50.906;7.152;2023-10-09T09:39:21;14.13;;;6.67;;
4290;SDS011;2159;50.906;7.152;2023-10-09T09:42:07;9.93;;;6.03;;
4290;SDS011;2159;50.906;7.152;2023-10-09T09:44:40;7.00;;;5.10;;
4290;SDS011;2159;50.906;7.152;2023-10-09T09:47:12;9.30;;;5.93;;
4290;SDS011;2159;50.906;7.152;2023-10-09T09:49:42;9.43;;;6.30;;
4290;SDS011;2159;50.906;7.152;2023-10-09T09:52:10;8.57;;;5.90;;
4290;SDS011;2159;50.906;7.152;2023-10-09T09:54:38;9.47;;;5.90;;
4290;SDS011;2159;50.906;7.152;2023-10-09T09:57:07;10.97;;;5.67;;
4290;SDS011;2159;50.906;7.152;2023-10-09T09:59:39;11.73;;;5.70;;
4290;SDS011;2159;50.906;7.152;2023-10-09T10:02:18;11.13;;;5.73;;
4290;SDS011;2159;50.906;7.152;2023-10-09T10:04:50;16.53;;;6.00;;
4290;SDS011;2159;50.906;7.152;2023-10-09T10:07:18;11.50;;;6.00;;
4290;SDS011;2159;50.906;7.152;2023-10-09T10:09:50;10.73;;;5.53;;
4290;SDS011;2159;50.906;7.152;2023-10-09T10:15:07;8.57;;;5.60;;
4290;SDS011;2159;50.906;7.152;2023-10-09T10:20:27;9.67;;;5.90;;
4290;SDS011;2159;50.906;7.152;2023-10-09T10:23:14;10.13;;;6.40;;
4290;SDS011;2159;50.906;7.152;2023-10-09T10:25:43;13.07;;;6.63;;
4290;SDS011;2159;50.906;7.152;2023-10-09T10:28:16;11.63;;;6.40;;
4290;SDS011;2159;50.906;7.152;2023-10-09T10:30:50;11.70;;;6.13;;
4290;SDS011;2159;50.906;7.152;2023-10-09T10:33:19;9.30;;;6.03;;
4290;SDS011;2159;50.906;7.152;2023-10-09T10:35:50;9.10;;;5.50;;
4290;SDS011;2159;50.906;7.152;2023-10-09T10:38:24;13.53;;;5.30;;
4290;SDS011;2159;50.906;7.152;2023-10-09T10:41:08;9.87;;;5.80;;
4290;SDS011;2159;50.906;7.152;2023-10-09T10:43:37;8.50;;;5.20;;
4290;SDS011;2159;50.906;7.152;2023-10-09T10:46:21;10.87;;;5.80;;
4290;SDS011;2159;50.906;7.152;2023-10-09T10:48:58;7.43;;;5.37;;
4290;SDS011;2159;50.906;7.152;2023-10-09T10:51:30;11.47;;;5.90;;
4290;SDS011;2159;50.906;7.152;2023-10-09T10:54:04;7.50;;;5.43;;
4290;SDS011;2159;50.906;7.152;2023-10-09T10:57:18;12.00;;;5.17;;
4290;SDS011;2159;50.906;7.152;2023-10-09T10:59:46;9.87;;;5.20;;
4290;SDS011;2159;50.906;7.152;2023-10-09T11:02:16;8.47;;;4.80;;
4290;SDS011;2159;50.906;7.152;2023-10-09T11:04:54;7.30;;;4.90;;
4290;SDS011;2159;50.906;7.152;2023-10-09T11:07:42;10.63;;;5.23;;
4290;SDS011;2159;50.906;7.152;2023-10-09T11:10:10;10.00;;;5.23;;
4290;SDS011;2159;50.906;7.152;2023-10-09T11:12:52;8.13;;;4.80;;
4290;SDS011;2159;50.906;7.152;2023-10-09T11:15:34;8.33;;;5.07;;
4290;SDS011;2159;50.906;7.152;2023-10-09T11:18:10;7.40;;;4.83;;
4290;SDS011;2159;50.906;7.152;2023-10-09T11:20:48;10.57;;;4.77;;
4290;SDS011;2159;50.906;7.152;2023-10-09T11:23:25;11.93;;;5.53;;
4290;SDS011;2159;50.906;7.152;2023-10-09T11:26:03;7.20;;;5.10;;
4290;SDS011;2159;50.906;7.152;2023-10-09T11:29:04;12.47;;;4.70;;
4290;SDS011;2159;50.906;7.152;2023-10-09T11:31:39;8.57;;;4.53;;
4290;SDS011;2159;50.906;7.152;2023-10-09T11:34:17;12.07;;;5.13;;
4290;SDS011;2159;50.906;7.152;2023-10-09T11:36:49;7.13;;;5.00;;
4290;SDS011;2159;50.906;7.152;2023-10-09T11:39:26;9.20;;;5.03;;
4290;SDS011;2159;50.906;7.152;2023-10-09T11:42:01;11.00;;;5.00;;
4290;SDS011;2159;50.906;7.152;2023-10-09T11:44:38;7.53;;;4.87;;
4290;SDS011;2159;50.906;7.152;2023-10-09T11:47:07;7.63;;;4.67;;
4290;SDS011;2159;50.906;7.152;2023-10-09T11:49:51;9.53;;;4.50;;
4290;SDS011;2159;50.906;7.152;2023-10-09T11:52:43;10.93;;;4.80;;
4290;SDS011;2159;50.906;7.152;2023-10-09T11:55:24;8.80;;;5.20;;
4290;SDS011;2159;50.906;7.152;2023-10-09T11:57:52;10.23;;;4.60;;
4290;SDS011;2159;50.906;7.152;2023-10-09T12:00:19;6.90;;;4.37;;
4290;SDS011;2159;50.906;7.152;2023-10-09T12:02:55;8.63;;;4.57;;
4290;SDS011;2159;50.906;7.152;2023-10-09T12:05:31;14.43;;;4.37;;
4290;SDS011;2159;50.906;7.152;2023-10-09T12:07:59;14.00;;;4.50;;
4290;SDS011;2159;50.906;7.152;2023-10-09T12:10:29;7.73;;;4.60;;
4290;SDS011;2159;50.906;7.152;2023-10-09T12:12:56;6.57;;;4.03;;
4290;SDS011;2159;50.906;7.152;2023-10-09T12:15:25;8.30;;;3.60;;
4290;SDS011;2159;50.906;7.152;2023-10-09T12:17:58;5.90;;;3.93;;
4290;SDS011;2159;50.906;7.152;2023-10-09T12:20:28;6.40;;;3.53;;
4290;SDS011;2159;50.906;7.152;2023-10-09T12:22:58;7.10;;;3.80;;
4290;SDS011;2159;50.906;7.152;2023-10-09T12:25:26;7.50;;;3.50;;
4290;SDS011;2159;50.906;7.152;2023-10-09T12:27:59;6.57;;;3.73;;
4290;SDS011;2159;50.906;7.152;2023-10-09T12:30:27;8.73;;;4.13;;
4290;SDS011;2159;50.906;7.152;2023-10-09T12:32:55;6.93;;;4.00;;
4290;SDS011;2159;50.906;7.152;2023-10-09T12:35:24;5.23;;;4.20;;
4290;SDS011;2159;50.906;7.152;2023-10-09T12:37:51;6.20;;;3.80;;
4290;SDS011;2159;50.906;7.152;2023-10-09T12:40:21;5.80;;;4.03;;
4290;SDS011;2159;50.906;7.152;2023-10-09T12:42:55;4.10;;;3.40;;
4290;SDS011;2159;50.906;7.152;2023-10-09T12:45:26;5.63;;;3.73;;
4290;SDS011;2159;50.906;7.152;2023-10-09T12:47:59;7.30;;;4.07;;
4290;SDS011;2159;50.906;7.152;2023-10-09T12:50:29;7.30;;;3.93;;
4290;SDS011;2159;50.906;7.152;2023-10-09T12:53:00;12.70;;;3.97;;
4290;SDS011;2159;50.906;7.152;2023-10-09T12:55:34;9.03;;;3.50;;
4290;SDS011;2159;50.906;7.152;2023-10-09T12:58:02;7.53;;;3.83;;
4290;SDS011;2159;50.906;7.152;2023-10-09T13:00:34;8.40;;;4.40;;
4290;SDS011;2159;50.906;7.152;2023-10-09T13:03:04;6.03;;;4.00;;
4290;SDS011;2159;50.906;7.152;2023-10-09T13:05:46;11.03;;;4.80;;
4290;SDS011;2159;50.906;7.152;2023-10-09T13:08:19;8.37;;;4.73;;
4290;SDS011;2159;50.906;7.152;2023-10-09T13:10:50;11.50;;;4.50;;
4290;SDS011;2159;50.906;7.152;2023-10-09T13:13:27;6.93;;;4.53;;
4290;SDS011;2159;50.906;7.152;2023-10-09T13:16:09;6.83;;;4.17;;
4290;SDS011;2159;50.906;7.152;2023-10-09T13:18:40;6.40;;;4.17;;
4290;SDS011;2159;50.906;7.152;2023-10-09T13:21:07;11.07;;;4.90;;
4290;SDS011;2159;50.906;7.152;2023-10-09T13:23:35;6.97;;;4.30;;
4290;SDS011;2159;50.906;7.152;2023-10-09T13:26:06;8.50;;;4.30;;
4290;SDS011;2159;50.906;7.152;2023-10-09T13:28:58;10.10;;;4.63;;
4290;SDS011;2159;50.906;7.152;2023-10-09T13:31:29;9.13;;;4.27;;
4290;SDS011;2159;50.906;7.152;2023-10-09T13:33:59;9.33;;;4.87;;
4290;SDS011;2159;50.906;7.152;2023-10-09T13:36:27;8.90;;;4.67;;
4290;SDS011;2159;50.906;7.152;2023-10-09T13:38:58;6.03;;;4.17;;
4290;SDS011;2159;50.906;7.152;2023-10-09T13:41:28;6.43;;;4.70;;
4290;SDS011;2159;50.906;7.152;2023-10-09T13:43:56;9.77;;;4.87;;
4290;SDS011;2159;50.906;7.152;2023-10-09T13:46:24;8.67;;;4.10;;
4290;SDS011;2159;50.906;7.152;2023-10-09T13:48:52;9.27;;;4.77;;
4290;SDS011;2159;50.906;7.152;2023-10-09T13:51:20;8.67;;;5.00;;
4290;SDS011;2159;50.906;7.152;2023-10-09T13:53:50;7.43;;;4.00;;
4290;SDS011;2159;50.906;7.152;2023-10-09T13:56:18;9.43;;;4.70;;
4290;SDS011;2159;50.906;7.152;2023-10-09T13:58:46;8.80;;;4.73;;
4290;SDS011;2159;50.906;7.152;2023-10-09T14:01:15;10.30;;;4.27;;
4290;SDS011;2159;50.906;7.152;2023-10-09T14:03:56;6.30;;;4.43;;
4290;SDS011;2159;50.906;7.152;2023-10-09T14:06:26;7.73;;;4.40;;
4290;SDS011;2159;50.906;7.152;2023-10-09T14:09:00;7.47;;;4.47;;
4290;SDS011;2159;50.906;7.152;2023-10-09T14:11:30;8.53;;;4.90;;
4290;SDS011;2159;50.906;7.152;2023-10-09T14:13:58;9.13;;;4.50;;
4290;SDS011;2159;50.906;7.152;2023-10-09T14:16:37;11.27;;;4.20;;
4290;SDS011;2159;50.906;7.152;2023-10-09T14:19:11;6.40;;;4.63;;
4290;SDS011;2159;50.906;7.152;2023-10-09T14:21:40;9.27;;;4.80;;
4290;SDS011;2159;50.906;7.152;2023-10-09T14:24:08;11.97;;;4.60;;
4290;SDS011;2159;50.906;7.152;2023-10-09T14:26:45;10.10;;;5.23;;
4290;SDS011;2159;50.906;7.152;2023-10-09T14:29:13;10.97;;;4.57;;
4290;SDS011;2159;50.906;7.152;2023-10-09T14:31:43;11.27;;;4.87;;
4290;SDS011;2159;50.906;7.152;2023-10-09T14:34:17;8.97;;;5.13;;
4290;SDS011;2159;50.906;7.152;2023-10-09T14:36:44;12.90;;;4.83;;
4290;SDS011;2159;50.906;7.152;2023-10-09T14:39:12;12.30;;;5.63;;
4290;SDS011;2159;50.906;7.152;2023-10-09T14:41:45;10.80;;;5.40;;
4290;SDS011;2159;50.906;7.152;2023-10-09T14:44:12;12.13;;;5.17;;
4290;SDS011;2159;50.906;7.152;2023-10-09T14:46:43;14.63;;;4.80;;
4290;SDS011;2159;50.906;7.152;2023-10-09T14:49:10;10.20;;;5.30;;
4290;SDS011;2159;50.906;7.152;2023-10-09T14:51:43;7.80;;;4.73;;
4290;SDS011;2159;50.906;7.152;2023-10-09T14:54:11;10.57;;;5.07;;
4290;SDS011;2159;50.906;7.152;2023-10-09T14:56:44;11.00;;;5.33;;
4290;SDS011;2159;50.906;7.152;2023-10-09T14:59:11;8.60;;;5.53;;
4290;SDS011;2159;50.906;7.152;2023-10-09T15:01:39;9.30;;;5.20;;
4290;SDS011;2159;50.906;7.152;2023-10-09T15:04:06;13.03;;;4.90;;
4290;SDS011;2159;50.906;7.152;2023-10-09T15:06:38;6.60;;;4.60;;
4290;SDS011;2159;50.906;7.152;2023-10-09T15:09:07;12.93;;;5.40;;
4290;SDS011;2159;50.906;7.152;2023-10-09T15:11:35;14.43;;;4.70;;
4290;SDS011;2159;50.906;7.152;2023-10-09T15:14:05;14.47;;;5.27;;
4290;SDS011;2159;50.906;7.152;2023-10-09T15:16:32;9.10;;;4.97;;
4290;SDS011;2159;50.906;7.152;2023-10-09T15:19:00;14.73;;;5.40;;
4290;SDS011;2159;50.906;7.152;2023-10-09T15:21:29;12.03;;;5.27;;
4290;SDS011;2159;50.906;7.152;2023-10-09T15:23:59;9.63;;;5.07;;
4290;SDS011;2159;50.906;7.152;2023-10-09T15:26:28;9.27;;;4.47;;
4290;SDS011;2159;50.906;7.152;2023-10-09T15:29:00;6.27;;;4.90;;
4290;SDS011;2159;50.906;7.152;2023-10-09T15:31:30;9.53;;;5.77;;
4290;SDS011;2159;50.906;7.152;2023-10-09T15:33:59;10.50;;;5.80;;
4290;SDS011;2159;50.906;7.152;2023-10-09T15:36:26;10.47;;;5.60;;
4290;SDS011;2159;50.906;7.152;2023-10-09T15:38:58;14.03;;;5.10;;
4290;SDS011;2159;50.906;7.152;2023-10-09T15:41:28;6.87;;;5.30;;
4290;SDS011;2159;50.906;7.152;2023-10-09T15:43:58;13.63;;;5.00;;
4290;SDS011;2159;50.906;7.152;2023-10-09T15:46:27;8.43;;;5.00;;
4290;SDS011;2159;50.906;7.152;2023-10-09T15:48:59;9.70;;;5.50;;
4290;SDS011;2159;50.906;7.152;2023-10-09T15:51:28;8.37;;;5.50;;
4290;SDS011;2159;50.906;7.152;2023-10-09T15:53:56;10.50;;;5.10;;
4290;SDS011;2159;50.906;7.152;2023-10-09T15:56:24;8.77;;;4.90;;
4290;SDS011;2159;50.906;7.152;2023-10-09T15:58:54;9.97;;;5.13;;